Arrantzale — EBVT — position and weather

sailwx.info

Track history (hours):
 
Tides and Currents Weather Stations Pressure Air Temp Water Temp Dewpoint Dewpoint Depression Visibility Wind Speed Wind Dir Waves Ship Positions

Arrantzale

Last reported at 2014-Oct-01 08:17 UTC. Time now 2014-Oct-01 10:24 UTC.
Position N 44°12' W 001°35'.

Length 32 m.

Type: Fishing. MMSI: 224065290.

Date/timePositionNaut miles runAvg speedWind from/ knotsBaromVisibWave heightAir tempDewpointWater temp
2014-Oct-01 08:17N 44°12' W 001°35'6 8.1
2014-Oct-01 07:33N 44°07' W 001°32'3 2.2
2014-Oct-01 06:12N 44°05' W 001°29'0 0.8
2014-Oct-01 05:33N 44°05' W 001°28'5 4.6
2014-Oct-01 04:23N 44°03' W 001°35'3 3.2
2014-Oct-01 03:33N 44°01' W 001°37'5 0.8
2014-Sep-30 21:28N 43°56' W 001°35'21 3.6
2014-Sep-30 15:31N 43°35' W 001°42'9 8.7
2014-Sep-30 14:28N 43°27' W 001°45'4 4.4
2014-Sep-30 13:33N 43°23' W 001°47'0 0.0
2014-Sep-30 12:33N 43°23' W 001°47'0 0.0
2014-Sep-30 11:33N 43°23' W 001°47'0 0.1
2014-Sep-30 10:27N 43°23' W 001°48'28 9.4
2014-Sep-30 07:31N 43°51' W 001°41'1010.3
2014-Sep-30 06:33N 44°00' W 001°39'2 1.5
2014-Sep-30 05:16N 44°02' W 001°39'3 3.6
2014-Sep-30 04:33N 44°03' W 001°35'1 0.7
2014-Sep-30 03:33N 44°03' W 001°34'0 0.4
2014-Sep-30 02:33N 44°03' W 001°34'40 3.7
2014-Sep-29 15:33N 43°23' W 001°47'1 0.1
2014-Sep-29 10:26N 43°23' W 001°48'0 0.0
2014-Sep-29 09:33N 43°23' W 001°48'0 0.0
2014-Sep-29 08:33N 43°23' W 001°48'0 0.0
2014-Sep-29 07:33N 43°23' W 001°48'0 0.0
2014-Sep-29 06:33N 43°23' W 001°48'0 0.0
2014-Sep-29 05:29N 43°23' W 001°48'0 0.0
2014-Sep-27 07:33N 43°23' W 001°48'0 0.0
2014-Sep-27 06:33N 43°23' W 001°48'0 0.0
2014-Sep-27 05:33N 43°23' W 001°48'0 0.0
2014-Sep-27 04:33N 43°23' W 001°48'0 0.0
2014-Sep-27 03:33N 43°23' W 001°48'0 0.0
2014-Sep-27 02:33N 43°23' W 001°48'0 0.0
2014-Sep-27 01:33N 43°23' W 001°48'0 0.0
2014-Sep-27 00:32N 43°23' W 001°48'1 1.3
2014-Sep-26 23:33N 43°24' W 001°47'1110.3
2014-Sep-26 22:31N 43°28' W 002°01'  
Track history (hours):
 
Tides and Currents Weather Stations Pressure Air Temp Water Temp Dewpoint Dewpoint Depression Visibility Wind Speed Wind Dir Waves Ship Positions

Arrantzale

Last reported at 2014-Oct-01 08:17 UTC. Time now 2014-Oct-01 10:24 UTC.
Position N 44°12' W 001°35'.

Length 32 m.

Type: Fishing. MMSI: 224065290.

Date/timePositionNaut miles runAvg speedWind from/ knotsBaromVisibWave heightAir tempDewpointWater temp
2014-Oct-01 08:17N 44°12' W 001°35'6 8.1
2014-Oct-01 07:33N 44°07' W 001°32'3 2.2
2014-Oct-01 06:12N 44°05' W 001°29'0 0.8
2014-Oct-01 05:33N 44°05' W 001°28'5 4.6
2014-Oct-01 04:23N 44°03' W 001°35'3 3.2
2014-Oct-01 03:33N 44°01' W 001°37'5 0.8
2014-Sep-30 21:28N 43°56' W 001°35'21 3.6
2014-Sep-30 15:31N 43°35' W 001°42'9 8.7
2014-Sep-30 14:28N 43°27' W 001°45'4 4.4
2014-Sep-30 13:33N 43°23' W 001°47'0 0.0
2014-Sep-30 12:33N 43°23' W 001°47'0 0.0
2014-Sep-30 11:33N 43°23' W 001°47'0 0.1
2014-Sep-30 10:27N 43°23' W 001°48'28 9.4
2014-Sep-30 07:31N 43°51' W 001°41'1010.3
2014-Sep-30 06:33N 44°00' W 001°39'2 1.5
2014-Sep-30 05:16N 44°02' W 001°39'3 3.6
2014-Sep-30 04:33N 44°03' W 001°35'1 0.7
2014-Sep-30 03:33N 44°03' W 001°34'0 0.4
2014-Sep-30 02:33N 44°03' W 001°34'40 3.7
2014-Sep-29 15:33N 43°23' W 001°47'1 0.1
2014-Sep-29 10:26N 43°23' W 001°48'0 0.0
2014-Sep-29 09:33N 43°23' W 001°48'0 0.0
2014-Sep-29 08:33N 43°23' W 001°48'0 0.0
2014-Sep-29 07:33N 43°23' W 001°48'0 0.0
2014-Sep-29 06:33N 43°23' W 001°48'0 0.0
2014-Sep-29 05:29N 43°23' W 001°48'0 0.0
2014-Sep-27 07:33N 43°23' W 001°48'0 0.0
2014-Sep-27 06:33N 43°23' W 001°48'0 0.0
2014-Sep-27 05:33N 43°23' W 001°48'0 0.0
2014-Sep-27 04:33N 43°23' W 001°48'0 0.0
2014-Sep-27 03:33N 43°23' W 001°48'0 0.0
2014-Sep-27 02:33N 43°23' W 001°48'0 0.0
2014-Sep-27 01:33N 43°23' W 001°48'0 0.0
2014-Sep-27 00:32N 43°23' W 001°48'1 1.3
2014-Sep-26 23:33N 43°24' W 001°47'1110.3
2014-Sep-26 22:31N 43°28' W 002°01'  

Dump ship's entire track history